sensor_id;sensor_type;location;lat;lon;timestamp;pressure;altitude;pressure_sealevel;temperature;humidity
70445;BME280;57902;49.638;11.070;2022-12-18T00:01:18;99642.03;;;-12.30;91.10
70445;BME280;57902;49.638;11.070;2022-12-18T00:03:45;99647.97;;;-12.38;91.97
70445;BME280;57902;49.638;11.070;2022-12-18T00:06:12;99643.13;;;-12.37;91.43
70445;BME280;57902;49.638;11.070;2022-12-18T00:08:41;99632.09;;;-12.40;91.15
70445;BME280;57902;49.638;11.070;2022-12-18T00:11:11;99632.81;;;-12.41;91.93
70445;BME280;57902;49.638;11.070;2022-12-18T00:13:38;99626.22;;;-12.41;92.56
70445;BME280;57902;49.638;11.070;2022-12-18T00:16:08;99627.38;;;-12.37;92.86
70445;BME280;57902;49.638;11.070;2022-12-18T00:18:35;99633.31;;;-12.35;92.49
70445;BME280;57902;49.638;11.070;2022-12-18T00:21:05;99633.06;;;-12.38;91.74
70445;BME280;57902;49.638;11.070;2022-12-18T00:23:33;99626.22;;;-12.41;90.64
70445;BME280;57902;49.638;11.070;2022-12-18T00:26:02;99625.38;;;-12.41;90.84
70445;BME280;57902;49.638;11.070;2022-12-18T00:28:29;99632.69;;;-12.43;90.51
70445;BME280;57902;49.638;11.070;2022-12-18T00:31:09;99632.31;;;-12.47;89.26
70445;BME280;57902;49.638;11.070;2022-12-18T00:33:36;99633.91;;;-12.48;89.76
70445;BME280;57902;49.638;11.070;2022-12-18T00:36:05;99623.59;;;-12.53;89.94
70445;BME280;57902;49.638;11.070;2022-12-18T00:38:32;99632.19;;;-12.59;89.86
70445;BME280;57902;49.638;11.070;2022-12-18T00:40:59;99634.78;;;-12.58;90.07
70445;BME280;57902;49.638;11.070;2022-12-18T00:43:27;99622.84;;;-12.62;89.42
70445;BME280;57902;49.638;11.070;2022-12-18T00:45:54;99624.06;;;-12.67;90.73
70445;BME280;57902;49.638;11.070;2022-12-18T00:48:21;99623.22;;;-12.68;90.20
70445;BME280;57902;49.638;11.070;2022-12-18T00:50:48;99620.00;;;-12.67;90.58
70445;BME280;57902;49.638;11.070;2022-12-18T00:53:15;99618.38;;;-12.66;90.92
70445;BME280;57902;49.638;11.070;2022-12-18T00:55:43;99614.00;;;-12.69;91.28
70445;BME280;57902;49.638;11.070;2022-12-18T00:58:10;99616.72;;;-12.76;91.00
70445;BME280;57902;49.638;11.070;2022-12-18T01:00:37;99622.44;;;-12.77;91.40
70445;BME280;57902;49.638;11.070;2022-12-18T01:03:05;99620.56;;;-12.79;91.08
70445;BME280;57902;49.638;11.070;2022-12-18T01:05:32;99624.41;;;-12.83;89.74
70445;BME280;57902;49.638;11.070;2022-12-18T01:07:59;99625.88;;;-12.85;89.54
70445;BME280;57902;49.638;11.070;2022-12-18T01:10:26;99627.13;;;-12.90;89.01
70445;BME280;57902;49.638;11.070;2022-12-18T01:12:52;99634.44;;;-12.92;90.08
70445;BME280;57902;49.638;11.070;2022-12-18T01:15:19;99633.56;;;-12.92;90.04
70445;BME280;57902;49.638;11.070;2022-12-18T01:17:46;99639.41;;;-12.92;90.33
70445;BME280;57902;49.638;11.070;2022-12-18T01:20:13;99646.56;;;-12.95;90.45
70445;BME280;57902;49.638;11.070;2022-12-18T01:22:40;99645.59;;;-12.97;90.05
70445;BME280;57902;49.638;11.070;2022-12-18T01:25:06;99649.81;;;-12.96;89.37
70445;BME280;57902;49.638;11.070;2022-12-18T01:27:33;99651.28;;;-12.98;90.40
70445;BME280;57902;49.638;11.070;2022-12-18T01:30:00;99647.69;;;-13.02;89.30
70445;BME280;57902;49.638;11.070;2022-12-18T01:32:29;99651.16;;;-12.99;89.63
70445;BME280;57902;49.638;11.070;2022-12-18T01:34:56;99658.25;;;-12.94;90.49
70445;BME280;57902;49.638;11.070;2022-12-18T01:37:23;99667.72;;;-12.90;91.58
70445;BME280;57902;49.638;11.070;2022-12-18T01:39:49;99663.88;;;-12.86;90.09
70445;BME280;57902;49.638;11.070;2022-12-18T01:42:16;99663.34;;;-12.92;89.10
70445;BME280;57902;49.638;11.070;2022-12-18T01:47:41;99656.59;;;-13.04;90.20
70445;BME280;57902;49.638;11.070;2022-12-18T01:50:17;99658.59;;;-12.99;91.46
70445;BME280;57902;49.638;11.070;2022-12-18T01:52:50;99664.72;;;-12.96;92.77
70445;BME280;57902;49.638;11.070;2022-12-18T01:55:20;99675.72;;;-13.03;90.54
70445;BME280;57902;49.638;11.070;2022-12-18T01:57:49;99672.63;;;-13.00;91.87
70445;BME280;57902;49.638;11.070;2022-12-18T02:00:19;99673.16;;;-12.94;91.58
70445;BME280;57902;49.638;11.070;2022-12-18T02:02:47;99685.56;;;-12.94;91.63
70445;BME280;57902;49.638;11.070;2022-12-18T02:05:17;99671.19;;;-12.88;91.31
70445;BME280;57902;49.638;11.070;2022-12-18T02:08:00;99672.34;;;-12.84;90.73
70445;BME280;57902;49.638;11.070;2022-12-18T02:13:30;99674.94;;;-12.82;89.55
70445;BME280;57902;49.638;11.070;2022-12-18T02:18:43;99669.38;;;-12.80;90.54
70445;BME280;57902;49.638;11.070;2022-12-18T02:21:28;99674.06;;;-12.83;89.36
70445;BME280;57902;49.638;11.070;2022-12-18T02:26:49;99670.66;;;-12.94;90.29
70445;BME280;57902;49.638;11.070;2022-12-18T02:29:21;99667.31;;;-12.94;90.35
70445;BME280;57902;49.638;11.070;2022-12-18T02:31:52;99671.53;;;-12.93;91.45
70445;BME280;57902;49.638;11.070;2022-12-18T02:34:22;99670.78;;;-12.92;91.79
70445;BME280;57902;49.638;11.070;2022-12-18T02:36:51;99670.66;;;-12.94;91.68
70445;BME280;57902;49.638;11.070;2022-12-18T02:39:21;99671.53;;;-12.93;91.03
70445;BME280;57902;49.638;11.070;2022-12-18T02:41:48;99675.91;;;-12.91;90.69
70445;BME280;57902;49.638;11.070;2022-12-18T02:44:15;99671.69;;;-12.92;90.47
70445;BME280;57902;49.638;11.070;2022-12-18T02:46:49;99693.00;;;-12.94;89.66
70445;BME280;57902;49.638;11.070;2022-12-18T03:00:54;99708.09;;;-12.82;91.05
70445;BME280;57902;49.638;11.070;2022-12-18T03:03:55;99699.66;;;-12.84;90.46
70445;BME280;57902;49.638;11.070;2022-12-18T03:06:31;99707.81;;;-12.85;90.08
70445;BME280;57902;49.638;11.070;2022-12-18T03:09:03;99696.13;;;-12.86;89.77
70445;BME280;57902;49.638;11.070;2022-12-18T03:11:34;99696.66;;;-12.90;89.74
70445;BME280;57902;49.638;11.070;2022-12-18T03:14:23;99691.25;;;-12.95;89.19
70445;BME280;57902;49.638;11.070;2022-12-18T03:16:54;99676.38;;;-12.95;89.36
70445;BME280;57902;49.638;11.070;2022-12-18T03:19:27;99677.72;;;-12.98;89.94
70445;BME280;57902;49.638;11.070;2022-12-18T03:21:57;99687.19;;;-12.94;91.00
70445;BME280;57902;49.638;11.070;2022-12-18T03:24:26;99685.19;;;-12.98;89.22
70445;BME280;57902;49.638;11.070;2022-12-18T03:26:58;99684.44;;;-12.97;89.37
70445;BME280;57902;49.638;11.070;2022-12-18T03:29:38;99684.78;;;-13.03;89.40
70445;BME280;57902;49.638;11.070;2022-12-18T03:32:20;99689.03;;;-13.02;89.60
70445;BME280;57902;49.638;11.070;2022-12-18T03:34:51;99697.19;;;-13.03;90.00
70445;BME280;57902;49.638;11.070;2022-12-18T03:37:19;99698.53;;;-13.07;89.78
70445;BME280;57902;49.638;11.070;2022-12-18T03:39:46;99693.78;;;-13.14;89.04
70445;BME280;57902;49.638;11.070;2022-12-18T03:42:33;99702.84;;;-13.14;88.70
70445;BME280;57902;49.638;11.070;2022-12-18T03:45:23;99719.69;;;-13.21;88.86
70445;BME280;57902;49.638;11.070;2022-12-18T03:47:59;99723.78;;;-13.21;89.31
70445;BME280;57902;49.638;11.070;2022-12-18T03:50:52;99721.63;;;-13.27;88.18
70445;BME280;57902;49.638;11.070;2022-12-18T03:55:57;99724.94;;;-13.36;89.20
70445;BME280;57902;49.638;11.070;2022-12-18T03:58:26;99723.47;;;-13.34;88.80
70445;BME280;57902;49.638;11.070;2022-12-18T04:00:56;99723.19;;;-13.38;88.67
70445;BME280;57902;49.638;11.070;2022-12-18T04:03:23;99723.81;;;-13.40;89.66
70445;BME280;57902;49.638;11.070;2022-12-18T04:05:52;99721.63;;;-13.37;90.04
70445;BME280;57902;49.638;11.070;2022-12-18T04:08:21;99723.56;;;-13.33;90.74
70445;BME280;57902;49.638;11.070;2022-12-18T04:10:48;99726.94;;;-13.32;90.09
70445;BME280;57902;49.638;11.070;2022-12-18T04:13:25;99728.81;;;-13.30;89.69
70445;BME280;57902;49.638;11.070;2022-12-18T04:15:53;99725.56;;;-13.29;89.88
70445;BME280;57902;49.638;11.070;2022-12-18T04:18:20;99731.00;;;-13.33;89.15
70445;BME280;57902;49.638;11.070;2022-12-18T04:20:46;99736.81;;;-13.43;87.49
70445;BME280;57902;49.638;11.070;2022-12-18T04:23:13;99736.88;;;-13.51;87.81
70445;BME280;57902;49.638;11.070;2022-12-18T04:25:39;99737.81;;;-13.60;86.57
70445;BME280;57902;49.638;11.070;2022-12-18T04:28:06;99734.88;;;-13.56;88.91
70445;BME280;57902;49.638;11.070;2022-12-18T04:30:32;99734.00;;;-13.56;89.40
70445;BME280;57902;49.638;11.070;2022-12-18T04:32:59;99740.81;;;-13.53;88.41
70445;BME280;57902;49.638;11.070;2022-12-18T04:35:25;99734.72;;;-13.57;88.32
70445;BME280;57902;49.638;11.070;2022-12-18T04:37:51;99730.41;;;-13.68;87.66
70445;BME280;57902;49.638;11.070;2022-12-18T04:40:18;99734.06;;;-13.65;87.73
70445;BME280;57902;49.638;11.070;2022-12-18T04:42:44;99733.66;;;-13.69;87.52
70445;BME280;57902;49.638;11.070;2022-12-18T04:45:11;99740.19;;;-13.70;87.30
70445;BME280;57902;49.638;11.070;2022-12-18T04:47:37;99741.53;;;-13.74;88.00
70445;BME280;57902;49.638;11.070;2022-12-18T04:50:04;99743.13;;;-13.74;88.04
70445;BME280;57902;49.638;11.070;2022-12-18T04:52:31;99743.50;;;-13.80;87.33
70445;BME280;57902;49.638;11.070;2022-12-18T04:54:57;99739.53;;;-13.78;88.95
70445;BME280;57902;49.638;11.070;2022-12-18T04:57:24;99736.91;;;-13.79;88.27
70445;BME280;57902;49.638;11.070;2022-12-18T04:59:50;99728.75;;;-13.78;89.15
70445;BME280;57902;49.638;11.070;2022-12-18T05:02:16;99724.06;;;-13.75;88.93
70445;BME280;57902;49.638;11.070;2022-12-18T05:04:43;99733.66;;;-13.69;89.27
70445;BME280;57902;49.638;11.070;2022-12-18T05:07:09;99730.75;;;-13.74;88.81
70445;BME280;57902;49.638;11.070;2022-12-18T05:09:36;99737.00;;;-13.69;89.24
70445;BME280;57902;49.638;11.070;2022-12-18T05:12:02;99731.44;;;-13.66;88.98
70445;BME280;57902;49.638;11.070;2022-12-18T05:14:29;99726.88;;;-13.62;89.37
70445;BME280;57902;49.638;11.070;2022-12-18T05:16:55;99733.25;;;-13.55;91.22
70445;BME280;57902;49.638;11.070;2022-12-18T05:19:26;99746.03;;;-13.42;91.13
70445;BME280;57902;49.638;11.070;2022-12-18T05:21:52;99739.88;;;-13.26;91.59
70445;BME280;57902;49.638;11.070;2022-12-18T05:24:19;99745.88;;;-13.14;94.40
70445;BME280;57902;49.638;11.070;2022-12-18T05:26:45;99753.81;;;-12.99;94.39
70445;BME280;57902;49.638;11.070;2022-12-18T05:29:12;99752.66;;;-12.83;96.24
70445;BME280;57902;49.638;11.070;2022-12-18T05:31:39;99753.34;;;-12.65;98.29
70445;BME280;57902;49.638;11.070;2022-12-18T05:34:07;99749.81;;;-12.48;98.37
70445;BME280;57902;49.638;11.070;2022-12-18T05:36:33;99749.75;;;-12.29;97.58
70445;BME280;57902;49.638;11.070;2022-12-18T05:39:00;99745.09;;;-12.06;97.78
70445;BME280;57902;49.638;11.070;2022-12-18T05:41:27;99746.09;;;-11.83;98.95
70445;BME280;57902;49.638;11.070;2022-12-18T05:43:53;99745.59;;;-11.58;100.00
70445;BME280;57902;49.638;11.070;2022-12-18T05:46:20;99747.94;;;-11.29;100.00
70445;BME280;57902;49.638;11.070;2022-12-18T05:48:47;99746.19;;;-11.10;100.00
70445;BME280;57902;49.638;11.070;2022-12-18T05:51:16;99744.47;;;-10.78;100.00
70445;BME280;57902;49.638;11.070;2022-12-18T05:53:43;99742.41;;;-10.62;100.00
70445;BME280;57902;49.638;11.070;2022-12-18T05:56:13;99751.66;;;-10.39;100.00
70445;BME280;57902;49.638;11.070;2022-12-18T05:58:40;99751.88;;;-10.13;100.00
70445;BME280;57902;49.638;11.070;2022-12-18T06:01:18;99762.13;;;-9.98;100.00
70445;BME280;57902;49.638;11.070;2022-12-18T06:03:45;99757.78;;;-9.79;100.00
70445;BME280;57902;49.638;11.070;2022-12-18T06:06:18;99750.91;;;-9.59;100.00
70445;BME280;57902;49.638;11.070;2022-12-18T06:08:45;99747.91;;;-9.43;100.00
70445;BME280;57902;49.638;11.070;2022-12-18T06:11:12;99749.88;;;-9.39;100.00
70445;BME280;57902;49.638;11.070;2022-12-18T06:13:39;99752.16;;;-9.30;100.00
70445;BME280;57902;49.638;11.070;2022-12-18T06:16:06;99760.31;;;-9.21;100.00
70445;BME280;57902;49.638;11.070;2022-12-18T06:18:33;99773.88;;;-9.18;100.00
70445;BME280;57902;49.638;11.070;2022-12-18T06:21:00;99779.25;;;-9.13;100.00
70445;BME280;57902;49.638;11.070;2022-12-18T06:23:26;99771.53;;;-9.04;100.00
70445;BME280;57902;49.638;11.070;2022-12-18T06:25:53;99776.09;;;-8.99;100.00
70445;BME280;57902;49.638;11.070;2022-12-18T06:28:19;99768.06;;;-8.94;100.00
70445;BME280;57902;49.638;11.070;2022-12-18T06:30:47;99764.06;;;-8.92;100.00
70445;BME280;57902;49.638;11.070;2022-12-18T06:33:15;99753.28;;;-8.80;100.00
70445;BME280;57902;49.638;11.070;2022-12-18T06:35:42;99747.63;;;-8.77;100.00
70445;BME280;57902;49.638;11.070;2022-12-18T06:38:08;99746.66;;;-8.79;100.00
70445;BME280;57902;49.638;11.070;2022-12-18T06:40:37;99752.41;;;-8.80;100.00
70445;BME280;57902;49.638;11.070;2022-12-18T06:43:04;99755.44;;;-8.84;100.00
70445;BME280;57902;49.638;11.070;2022-12-18T06:45:31;99761.19;;;-8.85;100.00
70445;BME280;57902;49.638;11.070;2022-12-18T06:47:57;99769.59;;;-8.85;100.00
70445;BME280;57902;49.638;11.070;2022-12-18T06:50:24;99769.38;;;-8.88;100.00
70445;BME280;57902;49.638;11.070;2022-12-18T06:52:50;99767.31;;;-8.93;100.00
70445;BME280;57902;49.638;11.070;2022-12-18T06:55:17;99774.59;;;-8.97;100.00
70445;BME280;57902;49.638;11.070;2022-12-18T06:57:44;99784.47;;;-8.98;100.00
70445;BME280;57902;49.638;11.070;2022-12-18T07:00:10;99786.06;;;-8.99;100.00
70445;BME280;57902;49.638;11.070;2022-12-18T07:02:37;99789.47;;;-8.98;100.00
70445;BME280;57902;49.638;11.070;2022-12-18T07:05:04;99786.44;;;-8.94;100.00
70445;BME280;57902;49.638;11.070;2022-12-18T07:07:36;99791.75;;;-8.89;100.00
70445;BME280;57902;49.638;11.070;2022-12-18T07:10:03;99782.63;;;-8.77;100.00
70445;BME280;57902;49.638;11.070;2022-12-18T07:12:29;99783.84;;;-8.72;100.00
70445;BME280;57902;49.638;11.070;2022-12-18T07:14:56;99780.56;;;-8.71;100.00
70445;BME280;57902;49.638;11.070;2022-12-18T07:17:22;99779.25;;;-8.66;100.00
70445;BME280;57902;49.638;11.070;2022-12-18T07:19:49;99776.84;;;-8.52;100.00
70445;BME280;57902;49.638;11.070;2022-12-18T07:22:15;99771.31;;;-8.48;100.00
70445;BME280;57902;49.638;11.070;2022-12-18T07:24:41;99773.81;;;-8.48;100.00
70445;BME280;57902;49.638;11.070;2022-12-18T07:27:08;99770.94;;;-8.41;100.00
70445;BME280;57902;49.638;11.070;2022-12-18T07:29:35;99768.97;;;-8.33;100.00
70445;BME280;57902;49.638;11.070;2022-12-18T07:32:03;99777.75;;;-8.27;100.00
70445;BME280;57902;49.638;11.070;2022-12-18T07:34:29;99773.59;;;-8.14;100.00
70445;BME280;57902;49.638;11.070;2022-12-18T07:36:56;99780.56;;;-8.10;100.00
70445;BME280;57902;49.638;11.070;2022-12-18T07:39:22;99786.84;;;-8.03;100.00
70445;BME280;57902;49.638;11.070;2022-12-18T07:41:49;99794.84;;;-7.96;100.00
70445;BME280;57902;49.638;11.070;2022-12-18T07:44:35;99795.19;;;-7.91;100.00
70445;BME280;57902;49.638;11.070;2022-12-18T07:47:03;99798.22;;;-7.83;100.00
70445;BME280;57902;49.638;11.070;2022-12-18T07:49:36;99797.88;;;-7.76;100.00
70445;BME280;57902;49.638;11.070;2022-12-18T07:52:03;99802.13;;;-7.75;100.00
70445;BME280;57902;49.638;11.070;2022-12-18T07:54:29;99804.47;;;-7.65;100.00
70445;BME280;57902;49.638;11.070;2022-12-18T07:56:56;99805.19;;;-7.54;100.00
70445;BME280;57902;49.638;11.070;2022-12-18T07:59:22;99811.16;;;-7.52;100.00
70445;BME280;57902;49.638;11.070;2022-12-18T08:01:49;99805.88;;;-7.43;100.00
70445;BME280;57902;49.638;11.070;2022-12-18T08:04:15;99808.69;;;-7.39;100.00
70445;BME280;57902;49.638;11.070;2022-12-18T08:06:42;99811.53;;;-7.34;100.00
70445;BME280;57902;49.638;11.070;2022-12-18T08:09:13;99815.19;;;-7.29;100.00
70445;BME280;57902;49.638;11.070;2022-12-18T08:11:39;99804.13;;;-7.19;100.00
70445;BME280;57902;49.638;11.070;2022-12-18T08:14:06;99804.44;;;-7.14;100.00
70445;BME280;57902;49.638;11.070;2022-12-18T08:16:33;99798.94;;;-7.09;100.00
70445;BME280;57902;49.638;11.070;2022-12-18T08:18:59;99803.00;;;-6.97;100.00
70445;BME280;57902;49.638;11.070;2022-12-18T08:21:28;99806.69;;;-6.92;100.00
70445;BME280;57902;49.638;11.070;2022-12-18T08:23:57;99811.03;;;-6.90;100.00
70445;BME280;57902;49.638;11.070;2022-12-18T08:26:26;99813.53;;;-6.90;100.00
70445;BME280;57902;49.638;11.070;2022-12-18T08:28:55;99813.94;;;-6.83;100.00
70445;BME280;57902;49.638;11.070;2022-12-18T08:31:22;99815.06;;;-6.78;100.00
70445;BME280;57902;49.638;11.070;2022-12-18T08:33:50;99816.34;;;-6.72;100.00
70445;BME280;57902;49.638;11.070;2022-12-18T08:36:18;99819.91;;;-6.68;100.00
70445;BME280;57902;49.638;11.070;2022-12-18T08:38:46;99814.13;;;-6.54;100.00
70445;BME280;57902;49.638;11.070;2022-12-18T08:41:14;99815.97;;;-6.51;100.00
70445;BME280;57902;49.638;11.070;2022-12-18T08:43:42;99822.81;;;-6.35;100.00
70445;BME280;57902;49.638;11.070;2022-12-18T08:46:32;99816.06;;;-6.36;100.00
70445;BME280;57902;49.638;11.070;2022-12-18T08:49:00;99811.03;;;-6.36;100.00
70445;BME280;57902;49.638;11.070;2022-12-18T08:51:28;99810.19;;;-6.37;100.00
70445;BME280;57902;49.638;11.070;2022-12-18T08:53:54;99812.88;;;-6.34;100.00
70445;BME280;57902;49.638;11.070;2022-12-18T08:56:20;99801.88;;;-6.22;100.00
70445;BME280;57902;49.638;11.070;2022-12-18T08:58:47;99803.09;;;-6.16;100.00
70445;BME280;57902;49.638;11.070;2022-12-18T09:01:13;99806.88;;;-6.09;100.00
70445;BME280;57902;49.638;11.070;2022-12-18T09:03:41;99804.63;;;-6.04;100.00
70445;BME280;57902;49.638;11.070;2022-12-18T09:06:08;99803.06;;;-6.02;100.00
70445;BME280;57902;49.638;11.070;2022-12-18T09:08:34;99804.28;;;-5.95;100.00
70445;BME280;57902;49.638;11.070;2022-12-18T09:11:03;99805.16;;;-5.95;100.00
70445;BME280;57902;49.638;11.070;2022-12-18T09:13:29;99799.34;;;-5.94;100.00
70445;BME280;57902;49.638;11.070;2022-12-18T09:15:56;99797.22;;;-5.88;100.00
70445;BME280;57902;49.638;11.070;2022-12-18T09:18:23;99805.78;;;-5.71;100.00
70445;BME280;57902;49.638;11.070;2022-12-18T09:20:49;99799.53;;;-5.63;100.00
70445;BME280;57902;49.638;11.070;2022-12-18T09:23:20;99801.97;;;-5.64;100.00
70445;BME280;57902;49.638;11.070;2022-12-18T09:25:47;99800.34;;;-5.64;100.00
70445;BME280;57902;49.638;11.070;2022-12-18T09:28:18;99805.63;;;-5.59;100.00
70445;BME280;57902;49.638;11.070;2022-12-18T09:30:48;99791.66;;;-5.54;100.00
70445;BME280;57902;49.638;11.070;2022-12-18T09:33:16;99781.72;;;-5.52;100.00
70445;BME280;57902;49.638;11.070;2022-12-18T09:35:44;99778.34;;;-5.38;100.00
70445;BME280;57902;49.638;11.070;2022-12-18T09:38:13;99770.41;;;-5.31;99.75
70445;BME280;57902;49.638;11.070;2022-12-18T09:40:52;99768.75;;;-5.30;99.94
70445;BME280;57902;49.638;11.070;2022-12-18T09:43:24;99762.53;;;-5.22;99.64
70445;BME280;57902;49.638;11.070;2022-12-18T09:45:58;99766.94;;;-5.18;98.87
70445;BME280;57902;49.638;11.070;2022-12-18T09:48:35;99761.31;;;-5.14;99.16
70445;BME280;57902;49.638;11.070;2022-12-18T09:51:15;99758.00;;;-5.13;98.39
70445;BME280;57902;49.638;11.070;2022-12-18T09:53:51;99770.16;;;-5.05;98.58
70445;BME280;57902;49.638;11.070;2022-12-18T09:56:21;99759.75;;;-4.97;97.67
70445;BME280;57902;49.638;11.070;2022-12-18T09:58:52;99759.56;;;-4.85;97.56
70445;BME280;57902;49.638;11.070;2022-12-18T10:01:22;99761.28;;;-4.84;97.73
70445;BME280;57902;49.638;11.070;2022-12-18T10:03:50;99761.63;;;-4.78;97.95
70445;BME280;57902;49.638;11.070;2022-12-18T10:11:40;99763.13;;;-4.50;97.50
70445;BME280;57902;49.638;11.070;2022-12-18T10:17:07;99760.81;;;-4.30;97.45
70445;BME280;57902;49.638;11.070;2022-12-18T10:22:57;99748.13;;;-4.00;95.48
70445;BME280;57902;49.638;11.070;2022-12-18T10:28:16;99745.28;;;-3.74;93.89
70445;BME280;57902;49.638;11.070;2022-12-18T10:30:44;99733.97;;;-3.65;93.08
70445;BME280;57902;49.638;11.070;2022-12-18T10:33:18;99733.31;;;-3.61;93.01
70445;BME280;57902;49.638;11.070;2022-12-18T10:35:47;99724.81;;;-3.63;93.37
70445;BME280;57902;49.638;11.070;2022-12-18T10:40:55;99731.66;;;-3.61;92.82
70445;BME280;57902;49.638;11.070;2022-12-18T10:43:28;99732.13;;;-3.52;92.05
70445;BME280;57902;49.638;11.070;2022-12-18T10:46:12;99746.16;;;-3.57;91.75
70445;BME280;57902;49.638;11.070;2022-12-18T10:51:39;99761.50;;;-3.69;91.75
70445;BME280;57902;49.638;11.070;2022-12-18T10:54:14;99758.97;;;-3.69;91.59
70445;BME280;57902;49.638;11.070;2022-12-18T10:56:42;99758.59;;;-3.60;90.79
70445;BME280;57902;49.638;11.070;2022-12-18T10:59:12;99756.66;;;-3.65;90.90
70445;BME280;57902;49.638;11.070;2022-12-18T11:01:56;99750.53;;;-3.53;89.99
70445;BME280;57902;49.638;11.070;2022-12-18T11:04:30;99755.34;;;-3.57;90.52
70445;BME280;57902;49.638;11.070;2022-12-18T11:06:59;99750.41;;;-3.56;90.55
70445;BME280;57902;49.638;11.070;2022-12-18T11:09:27;99745.50;;;-3.53;90.70
70445;BME280;57902;49.638;11.070;2022-12-18T11:11:59;99739.38;;;-3.58;91.43
70445;BME280;57902;49.638;11.070;2022-12-18T11:14:34;99733.72;;;-3.54;90.80
70445;BME280;57902;49.638;11.070;2022-12-18T11:17:25;99728.75;;;-3.52;91.14
70445;BME280;57902;49.638;11.070;2022-12-18T11:19:58;99723.84;;;-3.49;91.01
70445;BME280;57902;49.638;11.070;2022-12-18T11:22:30;99728.25;;;-3.45;90.73
70445;BME280;57902;49.638;11.070;2022-12-18T11:25:00;99728.25;;;-3.45;91.10
70445;BME280;57902;49.638;11.070;2022-12-18T11:27:51;99726.31;;;-3.32;89.73
70445;BME280;57902;49.638;11.070;2022-12-18T11:30:32;99725.31;;;-3.36;89.94
70445;BME280;57902;49.638;11.070;2022-12-18T11:33:19;99721.06;;;-3.37;89.87
70445;BME280;57902;49.638;11.070;2022-12-18T11:35:56;99720.34;;;-3.35;90.31
70445;BME280;57902;49.638;11.070;2022-12-18T11:38:33;99705.81;;;-3.22;88.75
70445;BME280;57902;49.638;11.070;2022-12-18T11:43:55;99710.72;;;-3.25;88.90
70445;BME280;57902;49.638;11.070;2022-12-18T11:46:34;99712.31;;;-3.27;89.61
70445;BME280;57902;49.638;11.070;2022-12-18T11:49:34;99702.50;;;-3.21;88.96
70445;BME280;57902;49.638;11.070;2022-12-18T11:54:53;99677.16;;;-3.24;89.61
70445;BME280;57902;49.638;11.070;2022-12-18T11:57:57;99675.63;;;-3.21;88.76
70445;BME280;57902;49.638;11.070;2022-12-18T12:00:30;99676.31;;;-3.23;89.57
70445;BME280;57902;49.638;11.070;2022-12-18T12:03:21;99684.84;;;-3.21;88.69
70445;BME280;57902;49.638;11.070;2022-12-18T12:08:57;99683.75;;;-3.26;88.91
70445;BME280;57902;49.638;11.070;2022-12-18T12:11:42;99689.91;;;-3.21;87.99
70445;BME280;57902;49.638;11.070;2022-12-18T12:20:07;99667.47;;;-3.33;88.78
70445;BME280;57902;49.638;11.070;2022-12-18T12:38:55;99659.28;;;-3.11;87.53
70445;BME280;57902;49.638;11.070;2022-12-18T12:41:25;99657.88;;;-3.04;86.97
70445;BME280;57902;49.638;11.070;2022-12-18T12:44:21;99658.63;;;-3.07;86.82
70445;BME280;57902;49.638;11.070;2022-12-18T12:46:51;99665.53;;;-3.03;87.03
70445;BME280;57902;49.638;11.070;2022-12-18T12:49:20;99659.56;;;-3.05;87.40
70445;BME280;57902;49.638;11.070;2022-12-18T12:52:03;99657.38;;;-2.97;86.55
70445;BME280;57902;49.638;11.070;2022-12-18T12:54:32;99656.66;;;-2.94;86.86
70445;BME280;57902;49.638;11.070;2022-12-18T13:05:43;99655.22;;;-2.89;86.12
70445;BME280;57902;49.638;11.070;2022-12-18T13:12:10;99653.34;;;-2.75;84.82
70445;BME280;57902;49.638;11.070;2022-12-18T13:15:22;99651.84;;;-2.90;85.87
70445;BME280;57902;49.638;11.070;2022-12-18T13:18:23;99644.34;;;-2.88;85.89
70445;BME280;57902;49.638;11.070;2022-12-18T13:23:32;99629.47;;;-2.82;85.37
70445;BME280;57902;49.638;11.070;2022-12-18T13:31:01;99651.84;;;-2.90;86.18
70445;BME280;57902;49.638;11.070;2022-12-18T13:36:32;99655.38;;;-2.86;85.44
70445;BME280;57902;49.638;11.070;2022-12-18T13:44:39;99637.63;;;-3.06;86.53
70445;BME280;57902;49.638;11.070;2022-12-18T13:47:42;99631.94;;;-3.02;86.24
70445;BME280;57902;49.638;11.070;2022-12-18T13:50:22;99623.06;;;-3.11;87.13
70445;BME280;57902;49.638;11.070;2022-12-18T13:52:50;99618.41;;;-3.04;86.55
70445;BME280;57902;49.638;11.070;2022-12-18T13:55:20;99618.28;;;-3.07;86.46
70445;BME280;57902;49.638;11.070;2022-12-18T13:57:48;99610.69;;;-3.07;86.51
70445;BME280;57902;49.638;11.070;2022-12-18T14:00:26;99616.19;;;-3.15;86.84
70445;BME280;57902;49.638;11.070;2022-12-18T14:02:55;99612.00;;;-3.15;86.92
70445;BME280;57902;49.638;11.070;2022-12-18T14:07:49;99606.66;;;-3.21;87.19
70445;BME280;57902;49.638;11.070;2022-12-18T14:10:18;99606.53;;;-3.24;87.24
70445;BME280;57902;49.638;11.070;2022-12-18T14:13:07;99603.50;;;-3.17;86.89
70445;BME280;57902;49.638;11.070;2022-12-18T14:15:46;99598.91;;;-3.26;87.25
70445;BME280;57902;49.638;11.070;2022-12-18T14:20:47;99610.75;;;-3.23;87.33
70445;BME280;57902;49.638;11.070;2022-12-18T14:23:35;99608.59;;;-3.34;87.60
70445;BME280;57902;49.638;11.070;2022-12-18T14:26:20;99634.31;;;-3.41;88.44
70445;BME280;57902;49.638;11.070;2022-12-18T14:28:47;99628.28;;;-3.44;88.82
70445;BME280;57902;49.638;11.070;2022-12-18T14:31:22;99634.66;;;-3.51;89.03
70445;BME280;57902;49.638;11.070;2022-12-18T14:33:51;99633.03;;;-3.50;89.13
70445;BME280;57902;49.638;11.070;2022-12-18T14:36:20;99634.72;;;-3.49;88.69
70445;BME280;57902;49.638;11.070;2022-12-18T14:38:54;99632.00;;;-3.54;89.28
70445;BME280;57902;49.638;11.070;2022-12-18T14:41:22;99635.31;;;-3.55;88.96
70445;BME280;57902;49.638;11.070;2022-12-18T14:43:53;99632.56;;;-3.60;89.50
70445;BME280;57902;49.638;11.070;2022-12-18T14:49:02;99630.22;;;-3.57;88.86
70445;BME280;57902;49.638;11.070;2022-12-18T14:51:32;99627.50;;;-3.60;89.03
70445;BME280;57902;49.638;11.070;2022-12-18T14:54:02;99636.75;;;-3.60;88.57